Time;durP1;ratioP1;P1;durP2;ratioP2;P2;SDS_P1;SDS_P2;PMS_P1;PMS_P2;Temp;Humidity;BMP_temperature;BMP_pressure;BME280_temperature;BME280_humidity;BME280_pressure;Samples;Min_cycle;Max_cycle;Signal;HPM_P1;HPM_P2
2022/08/10 00:00:40;;;;;;;0.80;0.80;;;20.60;70.30;;;;;;5093121;28;20464;-79
2022/08/10 00:03:08;;;;;;;0.70;0.70;;;20.50;70.30;;;;;;5093202;28;20450;-79
2022/08/10 00:05:36;;;;;;;0.70;0.70;;;20.50;71.00;;;;;;5093170;28;20501;-79
2022/08/10 00:08:03;;;;;;;1.03;0.93;;;20.40;71.20;;;;;;5093135;28;20809;-79
2022/08/10 00:10:31;;;;;;;1.30;0.97;;;20.50;71.60;;;;;;5092649;28;20483;-79
2022/08/10 00:12:58;;;;;;;1.03;0.80;;;20.40;71.30;;;;;;5093088;28;20443;-79
2022/08/10 00:15:25;;;;;;;1.00;0.90;;;20.40;71.90;;;;;;5092980;28;20479;-79
2022/08/10 00:17:51;;;;;;;0.70;0.70;;;20.40;73.00;;;;;;5093062;28;20463;-79
2022/08/10 00:20:18;;;;;;;1.07;0.90;;;20.40;72.70;;;;;;5092969;28;20493;-79
2022/08/10 00:22:45;;;;;;;2.03;0.73;;;20.30;73.00;;;;;;5092712;28;20939;-79
2022/08/10 00:25:12;;;;;;;1.33;1.00;;;20.30;73.00;;;;;;5092953;28;20439;-79
2022/08/10 00:27:40;;;;;;;0.83;0.83;;;20.20;73.40;;;;;;5092701;28;20452;-79
2022/08/10 00:30:08;;;;;;;1.27;1.13;;;20.20;74.20;;;;;;5092557;28;20997;-79
2022/08/10 00:32:35;;;;;;;1.57;1.03;;;20.30;72.70;;;;;;5096563;28;20447;-79
2022/08/10 00:35:02;;;;;;;1.13;0.80;;;20.30;72.30;;;;;;5096558;28;20483;-79
2022/08/10 00:37:28;;;;;;;0.80;0.80;;;20.30;72.80;;;;;;5096516;28;20449;-79
2022/08/10 00:39:55;;;;;;;3.40;0.70;;;20.20;72.70;;;;;;5096410;28;20448;-79
2022/08/10 00:42:22;;;;;;;0.77;0.73;;;20.20;73.00;;;;;;5096131;28;20444;-79
2022/08/10 00:44:51;;;;;;;1.63;0.90;;;20.10;73.20;;;;;;5096407;28;20452;-79
2022/08/10 00:47:19;;;;;;;1.50;0.90;;;20.00;74.00;;;;;;5096326;28;20471;-79
2022/08/10 00:49:46;;;;;;;0.80;0.80;;;20.00;74.30;;;;;;5096235;28;20448;-79
2022/08/10 00:52:15;;;;;;;0.73;0.70;;;20.00;74.20;;;;;;5095905;28;20803;-79
2022/08/10 00:54:43;;;;;;;0.77;0.70;;;20.00;74.80;;;;;;5096131;28;20491;-79
2022/08/10 00:57:10;;;;;;;0.77;0.70;;;19.90;74.60;;;;;;5096152;28;20451;-79
2022/08/10 00:59:37;;;;;;;1.10;0.90;;;19.90;74.70;;;;;;5095768;28;20946;-79
2022/08/10 01:02:06;;;;;;;1.07;1.07;;;19.80;74.90;;;;;;5096046;28;20444;-79
2022/08/10 01:04:33;;;;;;;0.73;0.73;;;19.80;75.00;;;;;;5096015;28;20436;-79
2022/08/10 01:07:21;;;;;;;0.93;0.90;;;19.90;74.80;;;;;;5095948;28;20452;-79
2022/08/10 01:09:59;;;;;;;1.10;0.83;;;19.80;76.30;;;;;;5095653;28;20476;-79
2022/08/10 01:12:32;;;;;;;0.87;0.87;;;19.80;75.70;;;;;;5095566;28;20477;-79
2022/08/10 01:15:04;;;;;;;0.67;0.67;;;19.80;75.70;;;;;;5095804;28;20460;-79
2022/08/10 01:17:37;;;;;;;1.70;0.80;;;19.70;75.60;;;;;;5095801;28;20766;-79
2022/08/10 01:20:11;;;;;;;0.70;0.70;;;19.70;75.80;;;;;;5095660;28;20452;-79
2022/08/10 01:23:23;;;;;;;0.60;0.60;;;19.80;75.70;;;;;;5095409;28;20439;-79
2022/08/10 01:26:09;;;;;;;1.00;0.73;;;19.70;76.50;;;;;;5013230;28;20443;-79
2022/08/10 01:28:50;;;;;;;0.80;0.60;;;19.70;76.20;;;;;;5013241;28;20977;-79
2022/08/10 01:31:23;;;;;;;1.30;0.90;;;19.60;76.10;;;;;;5068390;28;20478;-80
2022/08/10 01:33:54;;;;;;;0.70;0.70;;;19.60;77.00;;;;;;5095512;28;20495;-79
2022/08/10 01:36:27;;;;;;;0.90;0.90;;;19.60;76.90;;;;;;5095465;28;20428;-79
2022/08/10 01:38:56;;;;;;;0.60;0.60;;;19.50;76.90;;;;;;5095396;28;20452;-79
2022/08/10 01:41:27;;;;;;;0.97;0.93;;;19.50;77.50;;;;;;5094860;28;20495;-79
2022/08/10 01:43:58;;;;;;;0.70;0.70;;;19.50;77.40;;;;;;5094917;28;20443;-79
2022/08/10 01:46:28;;;;;;;0.80;0.80;;;19.50;77.40;;;;;;5094874;28;20810;-79
2022/08/10 01:48:57;;;;;;;1.00;1.00;;;19.50;78.70;;;;;;5100184;28;20784;-79
2022/08/10 01:51:29;;;;;;;1.33;0.70;;;19.40;78.10;;;;;;5094569;28;21036;-79
2022/08/10 01:54:00;;;;;;;1.43;1.00;;;19.40;78.60;;;;;;5095081;28;20471;-79
2022/08/10 01:56:30;;;;;;;1.07;0.90;;;19.40;78.20;;;;;;5094725;28;20416;-79
2022/08/10 01:58:59;;;;;;;1.53;0.97;;;19.40;79.10;;;;;;5094672;28;20923;-79
2022/08/10 02:01:32;;;;;;;0.80;0.80;;;19.40;78.50;;;;;;5094496;28;20460;-79
2022/08/10 02:04:03;;;;;;;1.23;1.07;;;19.30;78.70;;;;;;5094653;28;20884;-79
2022/08/10 02:06:32;;;;;;;1.00;1.00;;;19.30;78.80;;;;;;5094585;28;20919;-79
2022/08/10 02:09:01;;;;;;;0.90;0.90;;;19.20;79.20;;;;;;5094500;28;20943;-79
2022/08/10 02:11:28;;;;;;;0.90;0.90;;;19.20;79.40;;;;;;5094294;28;20494;-79
2022/08/10 02:13:56;;;;;;;0.60;0.60;;;19.20;79.80;;;;;;5094725;28;20485;-79
2022/08/10 02:16:26;;;;;;;1.30;1.20;;;19.20;79.70;;;;;;5094272;28;20994;-79
2022/08/10 02:18:55;;;;;;;3.10;1.40;;;19.20;80.00;;;;;;5094596;28;20444;-79
2022/08/10 02:21:24;;;;;;;0.87;0.77;;;19.20;80.00;;;;;;5094509;28;20460;-79
2022/08/10 02:23:53;;;;;;;0.77;0.77;;;19.20;80.00;;;;;;5094177;28;20982;-79
2022/08/10 02:26:20;;;;;;;0.90;0.80;;;19.20;80.40;;;;;;5094123;28;20951;-79
2022/08/10 02:28:47;;;;;;;0.60;0.60;;;19.20;81.20;;;;;;5094382;28;20447;-79
2022/08/10 02:31:18;;;;;;;6.93;0.70;;;19.20;81.10;;;;;;5094277;28;20471;-79
2022/08/10 02:33:48;;;;;;;2.30;1.00;;;19.20;81.40;;;;;;5094334;28;20428;-79
2022/08/10 02:36:18;;;;;;;0.77;0.77;;;19.10;80.80;;;;;;5094223;28;20464;-79
2022/08/10 02:38:49;;;;;;;0.70;0.70;;;19.10;80.80;;;;;;5094203;28;20451;-79
2022/08/10 02:41:31;;;;;;;0.80;0.80;;;19.10;80.80;;;;;;5094124;28;20464;-79
2022/08/10 02:44:03;;;;;;;0.70;0.70;;;19.00;81.00;;;;;;5094796;28;20432;-79
2022/08/10 02:46:36;;;;;;;0.73;0.70;;;19.00;82.00;;;;;;5093816;28;20424;-79
2022/08/10 02:49:04;;;;;;;0.73;0.60;;;19.00;81.30;;;;;;5094081;28;20432;-79
2022/08/10 02:51:42;;;;;;;2.73;0.70;;;19.00;82.30;;;;;;5093638;28;21005;-79
2022/08/10 02:54:14;;;;;;;1.10;1.00;;;19.00;81.60;;;;;;5093321;28;20435;-80
2022/08/10 02:56:46;;;;;;;0.80;0.80;;;19.00;82.60;;;;;;5093948;28;20892;-79
2022/08/10 02:59:16;;;;;;;0.70;0.70;;;19.00;82.80;;;;;;5093628;28;20436;-79
2022/08/10 03:01:45;;;;;;;0.70;0.63;;;18.90;82.50;;;;;;5093772;28;20495;-79
2022/08/10 03:04:18;;;;;;;0.70;0.70;;;18.80;83.50;;;;;;5093823;28;20450;-79
2022/08/10 03:07:01;;;;;;;1.03;0.93;;;18.80;82.60;;;;;;5093787;28;20428;-79
2022/08/10 03:09:30;;;;;;;0.70;0.70;;;18.80;82.70;;;;;;5093530;28;20436;-80
2022/08/10 03:11:58;;;;;;;0.70;0.70;;;18.90;83.90;;;;;;5093660;28;20468;-79
2022/08/10 03:14:27;;;;;;;0.80;0.80;;;18.90;84.50;;;;;;5093577;28;20515;-79
2022/08/10 03:16:55;;;;;;;0.83;0.83;;;18.80;83.80;;;;;;5093657;28;20451;-79
2022/08/10 03:19:24;;;;;;;0.77;0.77;;;18.80;84.20;;;;;;5093605;28;20443;-79
2022/08/10 03:21:54;;;;;;;0.80;0.80;;;18.80;83.90;;;;;;5093210;28;20475;-79
2022/08/10 03:24:24;;;;;;;0.80;0.80;;;18.80;84.40;;;;;;5093598;28;20440;-79
2022/08/10 03:26:52;;;;;;;1.23;0.80;;;18.80;83.90;;;;;;5093502;28;20539;-79
2022/08/10 03:29:21;;;;;;;6.60;0.73;;;18.70;84.40;;;;;;5093181;28;20826;-79
2022/08/10 03:31:50;;;;;;;0.80;0.80;;;18.70;83.90;;;;;;5093403;28;20464;-79
2022/08/10 03:34:18;;;;;;;1.00;0.80;;;18.70;85.50;;;;;;5093132;28;20455;-79
2022/08/10 03:36:45;;;;;;;0.60;0.60;;;18.70;85.90;;;;;;5093102;28;20815;-79
2022/08/10 03:39:14;;;;;;;1.30;1.20;;;18.70;85.00;;;;;;5093411;28;20448;-79
2022/08/10 03:41:46;;;;;;;0.90;0.90;;;18.70;85.60;;;;;;5093303;28;20808;-79
2022/08/10 03:44:18;;;;;;;1.43;0.93;;;18.70;85.20;;;;;;5093283;28;20451;-79
2022/08/10 03:46:46;;;;;;;1.00;0.90;;;18.60;85.40;;;;;;5093268;28;20435;-79
2022/08/10 03:49:14;;;;;;;0.83;0.83;;;18.60;85.00;;;;;;5092921;28;20947;-79
2022/08/10 03:51:42;;;;;;;1.20;1.03;;;18.60;85.10;;;;;;5092890;28;20475;-79
2022/08/10 03:54:09;;;;;;;0.63;0.63;;;18.60;85.80;;;;;;5092886;28;20966;-79
2022/08/10 03:56:39;;;;;;;0.97;0.70;;;18.50;86.70;;;;;;5093102;28;20480;-79
2022/08/10 03:59:08;;;;;;;0.93;0.90;;;18.50;86.90;;;;;;5092906;28;20937;-79
2022/08/10 04:01:35;;;;;;;0.87;0.87;;;18.50;86.60;;;;;;5093061;28;20468;-79
2022/08/10 04:04:02;;;;;;;1.33;0.93;;;18.50;87.20;;;;;;5093182;28;20459;-79
2022/08/10 04:06:29;;;;;;;0.87;0.87;;;18.40;86.50;;;;;;5096547;28;20444;-79
2022/08/10 04:08:58;;;;;;;0.70;0.70;;;18.40;87.60;;;;;;5097086;28;20806;-79
2022/08/10 04:11:25;;;;;;;1.60;0.90;;;18.40;88.10;;;;;;5096546;28;20990;-79
2022/08/10 04:13:53;;;;;;;0.80;0.80;;;18.40;88.50;;;;;;5096984;28;20440;-79
2022/08/10 04:16:19;;;;;;;1.00;0.60;;;18.40;88.70;;;;;;5096574;28;20483;-79
2022/08/10 04:18:46;;;;;;;1.33;1.17;;;18.30;88.80;;;;;;5096601;28;20448;-79
2022/08/10 04:21:17;;;;;;;1.67;0.93;;;18.30;87.90;;;;;;5096818;28;20463;-79
2022/08/10 04:23:46;;;;;;;1.33;0.97;;;18.30;89.00;;;;;;5096807;28;20439;-79
2022/08/10 04:26:14;;;;;;;0.70;0.70;;;18.30;89.00;;;;;;5096737;28;20436;-80
2022/08/10 04:28:41;;;;;;;1.37;0.90;;;18.30;89.10;;;;;;5096715;28;20440;-80
2022/08/10 04:31:14;;;;;;;0.50;0.50;;;18.20;89.40;;;;;;5096293;28;20829;-80
2022/08/10 04:33:45;;;;;;;0.73;0.73;;;18.20;89.50;;;;;;5096380;28;20801;-80
2022/08/10 04:36:13;;;;;;;1.10;0.80;;;18.20;90.00;;;;;;5096521;28;20460;-79
2022/08/10 04:38:41;;;;;;;3.40;1.00;;;18.10;90.10;;;;;;5096555;28;20428;-80
2022/08/10 04:41:08;;;;;;;0.60;0.60;;;18.10;90.40;;;;;;5096058;28;20471;-80
2022/08/10 04:43:36;;;;;;;1.13;1.13;;;18.10;90.20;;;;;;5096336;28;20447;-79
2022/08/10 04:46:02;;;;;;;0.90;0.90;;;18.10;90.20;;;;;;5096328;28;20435;-80
2022/08/10 04:48:30;;;;;;;0.87;0.77;;;18.10;90.50;;;;;;5096294;28;20444;-80
2022/08/10 04:50:57;;;;;;;1.17;0.90;;;18.20;90.50;;;;;;5096250;28;20464;-79
2022/08/10 04:53:24;;;;;;;0.80;0.80;;;18.10;90.50;;;;;;5096284;28;20452;-80
2022/08/10 04:55:51;;;;;;;2.97;1.40;;;18.10;89.60;;;;;;5095812;28;20942;-80
2022/08/10 04:58:17;;;;;;;1.03;1.00;;;18.20;90.20;;;;;;5096171;28;20448;-79
2022/08/10 05:00:44;;;;;;;1.60;1.33;;;18.30;89.20;;;;;;5096065;28;20472;-80
2022/08/10 05:03:11;;;;;;;0.80;0.80;;;18.30;90.20;;;;;;5096103;28;20444;-80
2022/08/10 05:05:39;;;;;;;1.73;0.77;;;18.40;88.70;;;;;;5095780;28;20443;-80
2022/08/10 05:08:06;;;;;;;0.80;0.80;;;18.40;89.40;;;;;;5095990;28;20450;-80
2022/08/10 05:10:33;;;;;;;1.17;0.90;;;18.50;89.50;;;;;;5095532;28;20487;-79
2022/08/10 05:12:59;;;;;;;0.77;0.77;;;18.50;88.40;;;;;;5095887;28;20448;-80
2022/08/10 05:15:26;;;;;;;0.93;0.93;;;18.50;87.60;;;;;;5095436;28;20476;-80
2022/08/10 05:17:53;;;;;;;0.67;0.67;;;18.60;88.50;;;;;;5095109;28;20459;-80
2022/08/10 05:20:20;;;;;;;0.90;0.77;;;18.70;86.90;;;;;;5095394;28;20987;-80
2022/08/10 05:22:48;;;;;;;1.10;0.70;;;18.70;87.10;;;;;;5095692;28;20542;-80
2022/08/10 05:25:17;;;;;;;0.80;0.80;;;18.80;87.20;;;;;;5095659;28;20448;-80
2022/08/10 05:27:45;;;;;;;5.60;0.90;;;18.90;86.50;;;;;;5095576;28;20447;-79
2022/08/10 05:30:14;;;;;;;0.90;0.87;;;18.80;86.70;;;;;;5095442;28;20474;-79
2022/08/10 05:32:41;;;;;;;0.90;0.90;;;18.90;86.40;;;;;;5095493;28;20455;-79
2022/08/10 05:35:08;;;;;;;0.70;0.70;;;19.00;86.30;;;;;;5095421;28;20513;-80
2022/08/10 05:37:35;;;;;;;0.70;0.70;;;19.00;86.20;;;;;;5095083;28;20927;-79
2022/08/10 05:40:06;;;;;;;0.70;0.70;;;19.10;85.80;;;;;;5094973;28;20975;-80
2022/08/10 05:42:33;;;;;;;0.77;0.77;;;19.20;86.10;;;;;;5095361;28;20530;-79
2022/08/10 05:45:00;;;;;;;2.30;0.97;;;19.20;85.80;;;;;;5095268;28;20459;-79
2022/08/10 05:47:27;;;;;;;2.40;0.80;;;19.30;85.20;;;;;;5095213;28;20440;-80
2022/08/10 05:49:54;;;;;;;0.60;0.60;;;19.40;84.80;;;;;;5095118;28;20444;-79
2022/08/10 05:52:21;;;;;;;0.77;0.77;;;19.40;84.80;;;;;;5095124;28;20455;-79
2022/08/10 05:54:50;;;;;;;0.60;0.60;;;19.60;84.20;;;;;;5095116;28;20455;-79
2022/08/10 05:57:22;;;;;;;3.80;0.77;;;19.70;84.60;;;;;;5094943;28;20475;-79
2022/08/10 06:00:00;;;;;;;0.97;0.80;;;19.70;84.10;;;;;;5094968;28;20436;-79
2022/08/10 06:02:32;;;;;;;0.90;0.83;;;19.80;83.60;;;;;;5094995;28;20457;-80
2022/08/10 06:05:03;;;;;;;0.77;0.77;;;19.90;84.40;;;;;;5094619;28;20908;-80
2022/08/10 06:07:30;;;;;;;0.80;0.80;;;20.10;83.80;;;;;;5098100;28;20507;-79
2022/08/10 06:10:00;;;;;;;0.70;0.70;;;20.30;83.70;;;;;;5094641;28;20479;-80
2022/08/10 06:12:29;;;;;;;1.13;0.83;;;20.60;82.00;;;;;;5094490;28;20792;-80
2022/08/10 06:14:59;;;;;;;0.73;0.73;;;20.80;80.80;;;;;;5094727;28;20450;-79
2022/08/10 06:17:28;;;;;;;0.60;0.60;;;20.90;80.40;;;;;;5094630;28;20471;-79
2022/08/10 06:19:55;;;;;;;0.80;0.80;;;21.10;80.20;;;;;;5094543;28;20501;-80
2022/08/10 06:22:23;;;;;;;0.87;0.87;;;21.20;79.20;;;;;;5094583;28;20448;-79
2022/08/10 06:24:50;;;;;;;0.97;0.60;;;21.40;79.50;;;;;;5094199;28;20947;-79
2022/08/10 06:27:17;;;;;;;1.07;0.83;;;21.60;79.40;;;;;;5094479;28;20440;-79
2022/08/10 06:29:46;;;;;;;1.53;1.00;;;21.70;79.00;;;;;;5093462;28;20452;-79
2022/08/10 06:32:14;;;;;;;0.80;0.80;;;21.90;77.50;;;;;;5094407;28;20444;-80
2022/08/10 06:34:46;;;;;;;0.60;0.60;;;22.00;77.10;;;;;;5094388;28;20447;-81
2022/08/10 06:37:16;;;;;;;0.83;0.83;;;22.20;76.70;;;;;;5094265;28;20516;-80
2022/08/10 06:39:44;;;;;;;1.10;1.10;;;22.40;75.50;;;;;;5094157;28;20447;-80
2022/08/10 06:42:15;;;;;;;0.70;0.70;;;22.40;75.00;;;;;;5094217;28;20443;-79
2022/08/10 06:44:50;;;;;;;1.00;0.70;;;22.40;74.80;;;;;;5094224;28;20492;-79
2022/08/10 06:47:19;;;;;;;0.77;0.77;;;22.40;74.50;;;;;;5094173;28;20431;-80
2022/08/10 06:49:49;;;;;;;0.80;0.70;;;22.60;74.50;;;;;;5094030;28;20451;-80
2022/08/10 06:52:18;;;;;;;0.70;0.70;;;22.70;74.50;;;;;;5094840;28;20450;-80
2022/08/10 06:54:46;;;;;;;0.83;0.83;;;22.80;75.50;;;;;;5093976;28;20444;-80
2022/08/10 06:57:15;;;;;;;0.90;0.90;;;22.90;74.20;;;;;;5093874;28;20491;-80
2022/08/10 06:59:46;;;;;;;1.53;0.60;;;23.00;74.10;;;;;;5093834;28;20447;-80
2022/08/10 07:02:19;;;;;;;0.73;0.73;;;23.20;73.80;;;;;;5093986;28;20435;-80
2022/08/10 07:04:52;;;;;;;0.60;0.60;;;23.30;73.60;;;;;;5093913;28;20432;-85
2022/08/10 07:07:24;;;;;;;1.10;0.70;;;23.40;73.60;;;;;;5093861;28;20428;-79
2022/08/10 07:09:52;;;;;;;0.70;0.70;;;23.50;73.10;;;;;;5093517;28;20487;-79
2022/08/10 07:12:21;;;;;;;0.80;0.70;;;23.70;72.90;;;;;;5093828;28;20434;-79
2022/08/10 07:14:50;;;;;;;0.60;0.60;;;23.80;72.30;;;;;;5093383;28;20443;-79
2022/08/10 07:17:20;;;;;;;0.80;0.63;;;23.90;71.60;;;;;;5093602;28;20475;-79
2022/08/10 07:19:51;;;;;;;0.90;0.77;;;23.90;70.40;;;;;;5093323;28;20641;-79
2022/08/10 07:22:20;;;;;;;1.73;0.60;;;23.90;71.70;;;;;;5093338;28;20431;-80
2022/08/10 07:24:47;;;;;;;0.60;0.60;;;24.10;71.40;;;;;;5093685;28;20205;-80
2022/08/10 07:27:16;;;;;;;0.80;0.80;;;24.30;70.20;;;;;;5093545;28;20446;-79
2022/08/10 07:29:45;;;;;;;0.70;0.70;;;24.40;70.10;;;;;;5093177;28;20683;-80
2022/08/10 07:32:13;;;;;;;1.00;0.70;;;24.40;71.10;;;;;;5093539;28;20205;-80
2022/08/10 07:34:44;;;;;;;0.60;0.60;;;24.50;69.20;;;;;;5093183;28;20208;-80
2022/08/10 07:37:13;;;;;;;0.90;0.90;;;24.70;69.70;;;;;;5093480;28;20205;-80
2022/08/10 07:39:45;;;;;;;0.63;0.63;;;24.80;69.50;;;;;;5094153;28;20212;-80
2022/08/10 07:42:14;;;;;;;1.98;0.90;;;24.90;68.00;;;;;;5097727;28;20181;-80
2022/08/10 07:44:44;;;;;;;1.70;0.77;;;24.80;68.00;;;;;;5097644;28;20197;-80
2022/08/10 07:47:15;;;;;;;0.80;0.80;;;24.90;68.20;;;;;;5097580;28;20181;-80
2022/08/10 07:49:46;;;;;;;1.43;0.90;;;24.90;68.30;;;;;;5097392;28;20189;-81
2022/08/10 07:52:13;;;;;;;1.00;1.00;;;24.90;67.80;;;;;;5097315;28;20181;-80
2022/08/10 07:54:43;;;;;;;0.93;0.93;;;24.80;68.50;;;;;;5098341;28;20190;-81
2022/08/10 07:57:13;;;;;;;0.88;0.88;;;24.90;68.50;;;;;;5097349;28;20205;-80
2022/08/10 07:59:43;;;;;;;0.75;0.60;;;25.10;68.50;;;;;;5097337;28;20193;-80
2022/08/10 08:02:18;;;;;;;1.00;1.00;;;25.20;67.60;;;;;;5097324;28;20238;-80
2022/08/10 08:04:48;;;;;;;1.00;0.90;;;25.40;68.00;;;;;;5096998;28;20655;-81
2022/08/10 08:07:15;;;;;;;0.70;0.70;;;25.70;67.00;;;;;;5097211;28;20193;-81
2022/08/10 08:09:43;;;;;;;2.75;0.63;;;25.90;66.20;;;;;;5096845;28;20208;-80
2022/08/10 08:12:12;;;;;;;1.15;0.80;;;26.00;65.80;;;;;;5096853;28;20185;-80
2022/08/10 08:14:41;;;;;;;1.10;0.90;;;26.20;65.70;;;;;;5097079;28;20307;-80
2022/08/10 08:17:08;;;;;;;0.93;0.68;;;26.50;65.10;;;;;;5098112;28;20692;-80
2022/08/10 08:19:36;;;;;;;0.77;0.77;;;26.60;64.60;;;;;;5099702;28;20197;-80
2022/08/10 08:22:05;;;;;;;0.70;0.70;;;26.70;62.90;;;;;;5096858;28;20217;-81
2022/08/10 08:24:34;;;;;;;0.77;0.77;;;26.60;64.40;;;;;;5096836;28;20208;-80
2022/08/10 08:27:02;;;;;;;0.70;0.70;;;26.50;63.70;;;;;;5096795;28;20201;-81
2022/08/10 08:29:30;;;;;;;0.65;0.65;;;26.40;63.40;;;;;;5096712;28;20213;-81
2022/08/10 08:31:58;;;;;;;0.65;0.65;;;26.10;64.20;;;;;;5096396;28;20221;-81
2022/08/10 08:34:26;;;;;;;1.00;0.77;;;26.10;64.30;;;;;;5097502;28;20201;-81
2022/08/10 08:36:53;;;;;;;0.80;0.80;;;26.00;64.20;;;;;;5096198;28;20217;-80
2022/08/10 08:39:22;;;;;;;0.70;0.68;;;26.00;65.60;;;;;;5096546;28;20197;-81
2022/08/10 08:42:00;;;;;;;2.78;0.95;;;26.00;64.80;;;;;;5096130;28;20580;-81
2022/08/10 08:44:39;;;;;;;0.70;0.70;;;26.00;64.20;;;;;;5096290;28;20188;-81
2022/08/10 08:47:24;;;;;;;0.70;0.70;;;26.00;65.00;;;;;;5096480;28;20178;-82
2022/08/10 08:50:06;;;;;;;0.70;0.60;;;26.10;64.00;;;;;;5096014;28;20633;-82
2022/08/10 08:52:48;;;;;;;0.70;0.70;;;26.00;64.40;;;;;;5094939;28;20192;-81
2022/08/10 08:55:34;;;;;;;0.60;0.60;;;26.20;63.90;;;;;;5096366;28;20193;-81
2022/08/10 08:58:13;;;;;;;0.93;0.85;;;26.20;62.00;;;;;;5095519;28;20707;-85
2022/08/10 09:00:44;;;;;;;0.73;0.63;;;26.30;63.00;;;;;;5101366;28;20300;-88
2022/08/10 09:03:32;;;;;;;3.42;0.98;;;26.30;62.40;;;;;;5104847;28;20185;-79
2022/08/10 09:06:09;;;;;;;0.70;0.70;;;26.30;62.50;;;;;;5097174;28;20193;-80
2022/08/10 09:09:03;;;;;;;0.77;0.77;;;26.40;60.00;;;;;;5116109;28;20578;-81
2022/08/10 09:11:44;;;;;;;0.70;0.70;;;26.40;59.90;;;;;;5115838;28;20232;-81
2022/08/10 09:14:20;;;;;;;0.70;0.70;;;26.50;61.50;;;;;;5116008;28;20645;-82
2022/08/10 09:16:56;;;;;;;0.70;0.70;;;26.70;60.60;;;;;;5115927;28;20266;-81
2022/08/10 09:19:31;;;;;;;0.80;0.80;;;26.80;58.20;;;;;;5105266;28;20185;-89
2022/08/10 09:22:03;;;;;;;0.70;0.70;;;26.70;59.10;;;;;;5096937;28;20612;-90
2022/08/10 09:24:36;;;;;;;1.05;0.90;;;26.80;58.10;;;;;;5096855;28;20621;-86
2022/08/10 09:27:19;;;;;;;3.72;1.10;;;27.00;57.60;;;;;;5096483;28;20189;-90
2022/08/10 09:29:54;;;;;;;4.28;2.63;;;27.00;57.10;;;;;;5096134;28;20538;-87
2022/08/10 09:32:32;;;;;;;0.80;0.80;;;26.70;57.50;;;;;;5096708;28;20189;-86
2022/08/10 09:35:14;;;;;;;0.55;0.55;;;26.70;57.70;;;;;;5096383;28;20648;-90
2022/08/10 09:37:46;;;;;;;0.98;0.75;;;26.70;57.10;;;;;;5097314;28;20561;-90
2022/08/10 09:40:24;;;;;;;0.60;0.60;;;26.80;57.00;;;;;;5096301;28;20225;-87
2022/08/10 09:43:03;;;;;;;0.70;0.70;;;27.00;57.70;;;;;;5105248;28;20185;-90
2022/08/10 09:45:39;;;;;;;1.02;0.70;;;27.00;57.00;;;;;;5095962;28;20178;-86
2022/08/10 09:48:13;;;;;;;0.70;0.65;;;27.00;57.30;;;;;;5097017;28;20192;-86
2022/08/10 09:50:51;;;;;;;0.80;0.80;;;27.10;56.40;;;;;;5096485;28;20222;-90
2022/08/10 09:53:28;;;;;;;0.60;0.60;;;27.00;56.40;;;;;;5098193;28;20268;-88
2022/08/10 09:56:06;;;;;;;0.60;0.60;;;27.10;56.00;;;;;;5097548;28;20292;-90
2022/08/10 09:58:42;;;;;;;0.60;0.60;;;27.20;55.90;;;;;;5111567;28;20216;-88
2022/08/10 10:01:15;;;;;;;0.60;0.60;;;27.30;55.80;;;;;;5113292;28;20235;-87
2022/08/10 10:03:47;;;;;;;1.45;0.77;;;27.40;56.40;;;;;;5106902;28;20656;-86
2022/08/10 10:06:20;;;;;;;0.82;0.82;;;27.50;56.00;;;;;;5110644;28;20193;-83
2022/08/10 10:08:58;;;;;;;1.00;1.00;;;27.40;55.30;;;;;;5094576;28;20196;-83
2022/08/10 10:11:42;;;;;;;1.48;0.90;;;27.30;55.30;;;;;;5094331;28;20232;-82
2022/08/10 10:14:16;;;;;;;0.50;0.50;;;27.10;56.10;;;;;;5094737;28;20204;-82
2022/08/10 10:17:01;;;;;;;0.85;0.60;;;27.00;55.70;;;;;;5100001;28;20192;-82
2022/08/10 10:19:53;;;;;;;0.60;0.60;;;26.80;55.70;;;;;;5114667;28;20193;-83
2022/08/10 10:22:40;;;;;;;0.68;0.68;;;26.90;55.90;;;;;;5112659;28;20196;-82
2022/08/10 10:25:15;;;;;;;0.70;0.60;;;27.20;55.70;;;;;;5113323;27;20199;-82
2022/08/10 10:27:48;;;;;;;0.80;0.70;;;27.30;55.10;;;;;;5098183;28;20196;-82
2022/08/10 10:30:18;;;;;;;0.80;0.80;;;27.40;56.00;;;;;;5094362;28;20220;-82
2022/08/10 10:32:55;;;;;;;1.25;0.77;;;27.50;54.90;;;;;;5094028;28;20204;-83
2022/08/10 10:35:24;;;;;;;0.52;0.52;;;27.50;55.50;;;;;;5103071;28;20181;-82
2022/08/10 10:37:53;;;;;;;0.73;0.73;;;27.50;54.90;;;;;;5104382;28;20683;-82
2022/08/10 10:40:23;;;;;;;0.85;0.85;;;27.80;54.00;;;;;;5094040;28;20228;-82
2022/08/10 10:42:58;;;;;;;2.13;0.73;;;28.10;53.70;;;;;;5101346;28;20668;-82
2022/08/10 10:45:34;;;;;;;0.60;0.60;;;28.40;53.30;;;;;;5109137;28;20192;-82
2022/08/10 10:48:12;;;;;;;0.63;0.50;;;28.20;53.00;;;;;;5093925;28;20545;-82
2022/08/10 10:50:50;;;;;;;2.15;0.60;;;28.00;53.40;;;;;;5095112;28;20221;-82
2022/08/10 10:53:28;;;;;;;0.60;0.50;;;28.00;54.10;;;;;;5098844;28;20204;-82
2022/08/10 10:56:02;;;;;;;0.63;0.60;;;28.00;53.00;;;;;;5109822;28;20185;-82
2022/08/10 10:58:43;;;;;;;0.60;0.60;;;28.00;53.30;;;;;;5101513;28;20204;-81
2022/08/10 11:01:21;;;;;;;0.70;0.70;;;28.00;53.90;;;;;;5112603;28;20224;-80
2022/08/10 11:04:08;;;;;;;0.63;0.63;;;28.20;52.30;;;;;;5098981;28;20192;-81
2022/08/10 11:06:49;;;;;;;0.60;0.60;;;28.50;52.00;;;;;;5093581;28;20641;-81
2022/08/10 11:09:20;;;;;;;0.70;0.70;;;28.80;52.00;;;;;;5105844;28;20185;-79
2022/08/10 11:11:51;;;;;;;0.70;0.70;;;29.20;51.00;;;;;;5093173;28;20242;-80
2022/08/10 11:14:28;;;;;;;0.90;0.60;;;29.20;50.80;;;;;;5101092;28;20185;-82
2022/08/10 11:17:02;;;;;;;0.63;0.63;;;29.00;51.90;;;;;;5112858;28;20181;-83
2022/08/10 11:19:39;;;;;;;1.95;0.60;;;28.90;51.80;;;;;;5093727;28;20193;-80
2022/08/10 11:22:20;;;;;;;0.60;0.60;;;28.30;52.10;;;;;;5093538;28;20193;-80
2022/08/10 11:24:53;;;;;;;0.70;0.60;;;28.20;52.10;;;;;;5093661;28;20194;-82
2022/08/10 11:27:32;;;;;;;0.50;0.50;;;28.00;52.50;;;;;;5109250;28;20215;-79
2022/08/10 11:30:04;;;;;;;0.60;0.60;;;27.60;52.40;;;;;;5096319;28;20785;-79
2022/08/10 11:32:40;;;;;;;0.77;0.77;;;27.60;53.00;;;;;;5112340;28;20374;-80
2022/08/10 11:35:18;;;;;;;0.65;0.65;;;27.50;53.10;;;;;;5093928;28;20189;-80
2022/08/10 11:37:54;;;;;;;0.85;0.85;;;27.60;53.10;;;;;;5093521;28;20202;-79
2022/08/10 11:40:27;;;;;;;0.50;0.50;;;27.60;52.30;;;;;;5099125;28;20213;-80
2022/08/10 11:43:05;;;;;;;0.60;0.60;;;27.70;52.10;;;;;;5100872;28;20201;-79
2022/08/10 11:45:35;;;;;;;0.95;0.60;;;27.60;52.10;;;;;;5113070;28;20188;-81
2022/08/10 11:48:12;;;;;;;0.88;0.60;;;27.60;51.90;;;;;;5114879;28;20189;-80
2022/08/10 11:50:46;;;;;;;0.75;0.75;;;27.50;51.80;;;;;;5103591;28;20236;-79
2022/08/10 11:53:19;;;;;;;0.80;0.75;;;27.50;51.60;;;;;;5093414;28;20192;-79
2022/08/10 11:55:51;;;;;;;0.70;0.70;;;27.40;51.30;;;;;;5102770;28;20299;-79
2022/08/10 12:01:10;;;;;;;0.60;0.60;;;27.40;51.90;;;;;;5113084;28;20223;-80
2022/08/10 12:03:41;;;;;;;0.80;0.70;;;27.40;52.10;;;;;;5113619;28;20181;-81
2022/08/10 12:06:12;;;;;;;0.60;0.60;;;27.30;51.70;;;;;;5101313;28;20564;-79
2022/08/10 12:08:41;;;;;;;2.08;0.80;;;27.30;52.60;;;;;;5093180;28;20322;-79
2022/08/10 12:11:10;;;;;;;0.77;0.77;;;27.20;52.90;;;;;;5103471;28;20236;-79
2022/08/10 12:13:43;;;;;;;0.88;0.80;;;27.30;52.50;;;;;;5113472;28;20261;-79
2022/08/10 12:16:19;;;;;;;0.80;0.60;;;27.30;52.50;;;;;;5102349;28;20201;-79
2022/08/10 12:18:53;;;;;;;0.80;0.80;;;27.20;52.50;;;;;;5093037;28;20205;-78
2022/08/10 12:21:24;;;;;;;0.70;0.68;;;27.20;52.00;;;;;;5104015;28;20583;-81
2022/08/10 12:23:54;;;;;;;0.80;0.80;;;27.10;52.90;;;;;;5113437;28;20189;-79
2022/08/10 12:26:26;;;;;;;0.90;0.65;;;27.10;52.50;;;;;;5104154;28;20217;-79
2022/08/10 12:29:01;;;;;;;2.80;0.80;;;27.00;52.40;;;;;;5096798;28;20242;-79
2022/08/10 12:31:35;;;;;;;0.63;0.63;;;26.90;52.80;;;;;;5107352;28;20216;-79
2022/08/10 12:34:16;;;;;;;4.25;0.60;;;26.80;53.00;;;;;;5116796;28;20198;-80
2022/08/10 12:36:47;;;;;;;0.70;0.70;;;26.90;52.60;;;;;;5099264;28;20192;-79
2022/08/10 12:39:18;;;;;;;0.75;0.75;;;26.90;52.30;;;;;;5096571;28;20205;-80
2022/08/10 12:41:51;;;;;;;0.70;0.70;;;26.80;52.50;;;;;;5096221;28;20728;-81
2022/08/10 12:44:24;;;;;;;0.70;0.60;;;26.70;52.50;;;;;;5096478;28;20196;-80
2022/08/10 12:46:58;;;;;;;0.70;0.70;;;26.60;52.70;;;;;;5096364;28;20543;-80
2022/08/10 12:49:32;;;;;;;0.63;0.60;;;26.60;52.70;;;;;;5096374;28;20192;-80
2022/08/10 12:52:04;;;;;;;0.70;0.60;;;26.60;52.50;;;;;;5096290;28;20244;-79
2022/08/10 12:54:36;;;;;;;0.60;0.60;;;26.60;52.50;;;;;;5096278;28;20190;-79
2022/08/10 12:57:08;;;;;;;0.77;0.70;;;26.70;52.50;;;;;;5096321;28;20218;-79
2022/08/10 12:59:37;;;;;;;0.77;0.77;;;26.70;52.50;;;;;;5095886;28;20677;-84
2022/08/10 13:02:05;;;;;;;1.00;0.63;;;26.70;52.20;;;;;;5095556;28;20217;-79
2022/08/10 13:04:36;;;;;;;0.70;0.70;;;26.60;53.00;;;;;;5096058;28;20198;-79
2022/08/10 13:07:04;;;;;;;0.80;0.65;;;26.60;52.60;;;;;;5095667;28;20197;-79
2022/08/10 13:09:33;;;;;;;0.60;0.60;;;26.60;52.50;;;;;;5101528;28;20185;-80
2022/08/10 13:12:02;;;;;;;0.70;0.70;;;26.50;52.60;;;;;;5116347;28;20228;-80